Airfield :
LOGIN :

Register | Disclaimer

   EN    FR    IT 

 










Legend :    VFR   Marginal VFR   IFR   Intensive IFR   Very Intensive IFR
Visi :
Ceiling :
>= 8 km
>= 3000ft
5 to 8 km
1000 to 3000 ft
1500m to 5 km
500 to 1000 ft
800 to 1500m
200 to 500 ft
< 800m
< 200 ft
Symbols :   Thunderstorms  Fog  Heavy snow  Heavy precipitations  Wind > 20 kt
SIGMETs :     Misc.  Thunderstorms  Icing  Turbulence  Mountain Waves  Volcanic Ashes






- Airport Elevation : 483 ft
- IATA code : KAJ


EFKI - Kajaani

CURRENT METAR :
  • 072350Z AUTO 16002KT 0650 R25/0700 FZFG VV002 M02/M02 Q1015

EXPIRED METARs :
  • 072320Z AUTO 33003KT 6000 BKN001 M01/M01 Q1015
  • 072250Z AUTO 31004KT 250V350 9999 BKN003 M00/M01 Q1014
  • 072220Z AUTO VRB01KT 9999 BKN004 M01/M02 Q1014
  • 072150Z AUTO 28004KT 9999 BKN006 M01/M01 Q1014
  • 072120Z AUTO 28004KT 9999 BKN007 M00/M01 Q1013
  • 072050Z AUTO 30003KT 9999 BKN008 00/M00 Q1013

Expired Forecast.



MET'MAP, your aeronautical weather chart ! - Copyright ORBIFLY December 2007 - Disclaimer

ORBIFLY MET'MAP TEAM :

Programming & Development : Alexandra Zaïnal
Concept & original design : Baudouin d'Aumeries
Assistance for programming : Marc-Olivier Méhu
Technical & hardware support : Manuel Goepfert

Contact : metmap@orbifly.com




SOURCES & CREDITS :

   NOAA